sensor_id;sensor_type;location;lat;lon;timestamp;P1;P2;P0
68841;PMS5003;55849;48.482;2.332;2022-11-20T00:01:49;18.25;11.00;10.00
68841;PMS5003;55849;48.482;2.332;2022-11-20T00:04:50;12.50;11.25;8.50
68841;PMS5003;55849;48.482;2.332;2022-11-20T00:07:52;17.50;10.50;9.00
68841;PMS5003;55849;48.482;2.332;2022-11-20T00:10:54;12.75;9.75;7.50
68841;PMS5003;55849;48.482;2.332;2022-11-20T00:13:57;16.00;12.75;8.75
68841;PMS5003;55849;48.482;2.332;2022-11-20T00:17:00;14.50;12.50;9.00
68841;PMS5003;55849;48.482;2.332;2022-11-20T00:20:02;16.25;15.50;10.00
68841;PMS5003;55849;48.482;2.332;2022-11-20T00:23:04;28.25;23.50;16.00
68841;PMS5003;55849;48.482;2.332;2022-11-20T00:26:07;36.50;26.25;18.50
68841;PMS5003;55849;48.482;2.332;2022-11-20T00:29:12;32.00;23.75;17.00
68841;PMS5003;55849;48.482;2.332;2022-11-20T00:32:14;18.25;16.50;11.00
68841;PMS5003;55849;48.482;2.332;2022-11-20T00:35:15;21.00;16.00;10.00
68841;PMS5003;55849;48.482;2.332;2022-11-20T00:38:17;21.75;18.50;10.50
68841;PMS5003;55849;48.482;2.332;2022-11-20T00:41:19;27.50;19.50;12.50
68841;PMS5003;55849;48.482;2.332;2022-11-20T00:44:22;26.25;20.75;14.50
68841;PMS5003;55849;48.482;2.332;2022-11-20T00:47:23;30.00;21.25;15.00
68841;PMS5003;55849;48.482;2.332;2022-11-20T00:50:25;24.00;19.00;12.75
68841;PMS5003;55849;48.482;2.332;2022-11-20T00:53:27;20.50;17.75;11.50
68841;PMS5003;55849;48.482;2.332;2022-11-20T00:56:28;18.75;15.25;12.00
68841;PMS5003;55849;48.482;2.332;2022-11-20T00:59:31;19.50;16.00;12.00
68841;PMS5003;55849;48.482;2.332;2022-11-20T01:02:33;18.50;17.50;12.00
68841;PMS5003;55849;48.482;2.332;2022-11-20T01:05:35;17.75;15.75;9.75
68841;PMS5003;55849;48.482;2.332;2022-11-20T01:08:36;25.25;17.50;12.50
68841;PMS5003;55849;48.482;2.332;2022-11-20T01:11:39;20.50;16.25;11.75
68841;PMS5003;55849;48.482;2.332;2022-11-20T01:14:43;12.00;10.50;9.00
68841;PMS5003;55849;48.482;2.332;2022-11-20T01:17:45;17.50;11.00;6.25
68841;PMS5003;55849;48.482;2.332;2022-11-20T01:20:46;12.75;11.50;8.00
68841;PMS5003;55849;48.482;2.332;2022-11-20T01:23:48;9.75;9.75;6.00
68841;PMS5003;55849;48.482;2.332;2022-11-20T01:26:51;8.50;8.50;7.00
68841;PMS5003;55849;48.482;2.332;2022-11-20T01:29:54;6.00;6.00;4.50
68841;PMS5003;55849;48.482;2.332;2022-11-20T01:32:56;6.00;6.00;4.50
68841;PMS5003;55849;48.482;2.332;2022-11-20T01:36:02;6.75;4.00;4.00
68841;PMS5003;55849;48.482;2.332;2022-11-20T01:39:06;5.75;5.75;4.00
68841;PMS5003;55849;48.482;2.332;2022-11-20T01:42:11;8.00;6.00;3.50
68841;PMS5003;55849;48.482;2.332;2022-11-20T01:49:02;10.50;9.00;5.50
68841;PMS5003;55849;48.482;2.332;2022-11-20T01:52:07;10.50;9.75;7.50
68841;PMS5003;55849;48.482;2.332;2022-11-20T01:55:18;5.50;5.50;4.00
68841;PMS5003;55849;48.482;2.332;2022-11-20T01:58:22;6.00;6.00;6.00
68841;PMS5003;55849;48.482;2.332;2022-11-20T02:01:30;12.50;12.00;6.50
68841;PMS5003;55849;48.482;2.332;2022-11-20T02:04:31;8.75;7.00;5.50
68841;PMS5003;55849;48.482;2.332;2022-11-20T02:07:33;8.50;8.50;6.25
68841;PMS5003;55849;48.482;2.332;2022-11-20T02:10:35;11.50;11.00;8.00
68841;PMS5003;55849;48.482;2.332;2022-11-20T02:13:37;8.00;8.00;6.00
68841;PMS5003;55849;48.482;2.332;2022-11-20T02:16:46;9.25;8.25;7.00
68841;PMS5003;55849;48.482;2.332;2022-11-20T02:19:49;10.00;9.00;7.00
68841;PMS5003;55849;48.482;2.332;2022-11-20T02:22:53;10.75;8.00;6.00
68841;PMS5003;55849;48.482;2.332;2022-11-20T02:26:00;12.50;10.50;7.00
68841;PMS5003;55849;48.482;2.332;2022-11-20T02:29:04;10.50;6.50;4.00
68841;PMS5003;55849;48.482;2.332;2022-11-20T02:32:06;6.50;6.50;5.00
68841;PMS5003;55849;48.482;2.332;2022-11-20T02:38:53;11.00;7.50;7.00
68841;PMS5003;55849;48.482;2.332;2022-11-20T02:41:56;12.75;10.50;7.25
68841;PMS5003;55849;48.482;2.332;2022-11-20T02:44:58;10.00;7.50;6.25
68841;PMS5003;55849;48.482;2.332;2022-11-20T02:48:00;9.75;6.75;4.00
68841;PMS5003;55849;48.482;2.332;2022-11-20T02:51:01;8.50;6.25;4.00
68841;PMS5003;55849;48.482;2.332;2022-11-20T02:54:03;10.00;6.25;4.00
68841;PMS5003;55849;48.482;2.332;2022-11-20T02:57:06;9.00;7.25;5.50
68841;PMS5003;55849;48.482;2.332;2022-11-20T03:00:08;6.50;6.25;4.00
68841;PMS5003;55849;48.482;2.332;2022-11-20T03:03:11;11.25;7.50;6.75
68841;PMS5003;55849;48.482;2.332;2022-11-20T03:06:12;3.75;3.75;1.00
68841;PMS5003;55849;48.482;2.332;2022-11-20T03:09:14;7.50;7.50;5.50
68841;PMS5003;55849;48.482;2.332;2022-11-20T03:12:17;7.00;6.00;4.00
68841;PMS5003;55849;48.482;2.332;2022-11-20T03:15:18;7.50;6.00;4.00
68841;PMS5003;55849;48.482;2.332;2022-11-20T03:18:20;4.00;4.00;3.00
68841;PMS5003;55849;48.482;2.332;2022-11-20T03:21:22;8.00;3.75;2.00
68841;PMS5003;55849;48.482;2.332;2022-11-20T03:24:23;9.00;4.00;3.00
68841;PMS5003;55849;48.482;2.332;2022-11-20T03:27:26;9.00;4.25;1.50
68841;PMS5003;55849;48.482;2.332;2022-11-20T03:30:28;5.00;3.00;1.00
68841;PMS5003;55849;48.482;2.332;2022-11-20T03:33:29;5.75;3.25;2.50
68841;PMS5003;55849;48.482;2.332;2022-11-20T03:36:31;2.75;0.75;0.75
68841;PMS5003;55849;48.482;2.332;2022-11-20T03:39:33;3.50;3.50;2.00
68841;PMS5003;55849;48.482;2.332;2022-11-20T03:42:36;4.00;4.00;3.00
68841;PMS5003;55849;48.482;2.332;2022-11-20T03:45:47;1.50;1.50;0.75
68841;PMS5003;55849;48.482;2.332;2022-11-20T03:48:48;11.50;6.50;3.25
68841;PMS5003;55849;48.482;2.332;2022-11-20T03:51:50;6.00;6.00;4.00
68841;PMS5003;55849;48.482;2.332;2022-11-20T03:54:52;3.00;3.00;3.00
68841;PMS5003;55849;48.482;2.332;2022-11-20T03:57:55;5.50;3.00;2.00
68841;PMS5003;55849;48.482;2.332;2022-11-20T04:00:56;6.75;4.50;2.50
68841;PMS5003;55849;48.482;2.332;2022-11-20T04:03:58;7.25;7.25;4.50
68841;PMS5003;55849;48.482;2.332;2022-11-20T04:07:00;9.00;7.00;3.25
68841;PMS5003;55849;48.482;2.332;2022-11-20T04:10:01;8.00;6.25;3.25
68841;PMS5003;55849;48.482;2.332;2022-11-20T04:13:05;6.50;4.50;4.00
68841;PMS5003;55849;48.482;2.332;2022-11-20T04:16:07;6.50;3.50;1.50
68841;PMS5003;55849;48.482;2.332;2022-11-20T04:19:10;4.00;4.00;3.50
68841;PMS5003;55849;48.482;2.332;2022-11-20T04:22:13;4.00;4.00;3.75
68841;PMS5003;55849;48.482;2.332;2022-11-20T04:25:14;7.50;7.00;4.00
68841;PMS5003;55849;48.482;2.332;2022-11-20T04:28:17;7.00;7.00;4.00
68841;PMS5003;55849;48.482;2.332;2022-11-20T04:31:20;7.50;5.50;4.00
68841;PMS5003;55849;48.482;2.332;2022-11-20T04:34:23;6.25;6.00;3.00
68841;PMS5003;55849;48.482;2.332;2022-11-20T04:37:24;3.00;3.00;2.00
68841;PMS5003;55849;48.482;2.332;2022-11-20T04:40:27;3.75;3.00;3.00
68841;PMS5003;55849;48.482;2.332;2022-11-20T04:43:31;3.25;3.00;1.00
68841;PMS5003;55849;48.482;2.332;2022-11-20T04:46:33;4.50;1.00;1.00
68841;PMS5003;55849;48.482;2.332;2022-11-20T04:49:36;2.00;2.00;1.00
68841;PMS5003;55849;48.482;2.332;2022-11-20T04:52:38;3.00;3.00;3.00
68841;PMS5003;55849;48.482;2.332;2022-11-20T04:55:40;5.00;5.00;3.25
68841;PMS5003;55849;48.482;2.332;2022-11-20T04:58:43;6.00;3.75;3.00
68841;PMS5003;55849;48.482;2.332;2022-11-20T05:01:44;6.00;3.50;3.00
68841;PMS5003;55849;48.482;2.332;2022-11-20T05:04:46;3.00;3.00;1.00
68841;PMS5003;55849;48.482;2.332;2022-11-20T05:07:47;3.00;3.00;1.00
68841;PMS5003;55849;48.482;2.332;2022-11-20T05:10:49;3.00;3.00;1.00
68841;PMS5003;55849;48.482;2.332;2022-11-20T05:13:52;6.75;3.00;1.00
68841;PMS5003;55849;48.482;2.332;2022-11-20T05:16:54;4.00;3.00;3.00
68841;PMS5003;55849;48.482;2.332;2022-11-20T05:19:55;3.00;3.00;1.00
68841;PMS5003;55849;48.482;2.332;2022-11-20T05:22:57;3.00;3.00;1.00
68841;PMS5003;55849;48.482;2.332;2022-11-20T05:25:59;5.00;3.75;3.25
68841;PMS5003;55849;48.482;2.332;2022-11-20T05:29:03;5.00;5.00;3.25
68841;PMS5003;55849;48.482;2.332;2022-11-20T05:32:05;12.25;9.75;3.75
68841;PMS5003;55849;48.482;2.332;2022-11-20T05:35:09;11.25;7.50;4.00
68841;PMS5003;55849;48.482;2.332;2022-11-20T05:38:11;4.00;4.00;3.25
68841;PMS5003;55849;48.482;2.332;2022-11-20T05:41:13;4.00;4.00;3.50
68841;PMS5003;55849;48.482;2.332;2022-11-20T05:44:17;8.50;7.00;4.00
68841;PMS5003;55849;48.482;2.332;2022-11-20T05:47:19;7.00;5.00;3.25
68841;PMS5003;55849;48.482;2.332;2022-11-20T05:50:21;12.50;8.50;6.75
68841;PMS5003;55849;48.482;2.332;2022-11-20T05:53:22;12.00;12.00;9.00
68841;PMS5003;55849;48.482;2.332;2022-11-20T05:56:24;8.00;8.00;6.00
68841;PMS5003;55849;48.482;2.332;2022-11-20T05:59:27;9.50;6.00;4.00
68841;PMS5003;55849;48.482;2.332;2022-11-20T06:02:29;5.00;3.00;2.50
68841;PMS5003;55849;48.482;2.332;2022-11-20T06:05:30;6.50;6.25;3.75
68841;PMS5003;55849;48.482;2.332;2022-11-20T06:08:32;5.00;4.50;4.00
68841;PMS5003;55849;48.482;2.332;2022-11-20T06:11:34;6.00;4.00;3.00
68841;PMS5003;55849;48.482;2.332;2022-11-20T06:14:37;6.50;4.00;3.00
68841;PMS5003;55849;48.482;2.332;2022-11-20T06:17:38;6.75;4.00;4.00
68841;PMS5003;55849;48.482;2.332;2022-11-20T06:20:40;3.25;3.25;2.00
68841;PMS5003;55849;48.482;2.332;2022-11-20T06:23:42;4.00;1.50;0.75
68841;PMS5003;55849;48.482;2.332;2022-11-20T06:26:44;3.00;3.00;2.50
68841;PMS5003;55849;48.482;2.332;2022-11-20T06:29:47;4.00;4.00;3.00
68841;PMS5003;55849;48.482;2.332;2022-11-20T06:32:49;5.00;5.00;3.25
68841;PMS5003;55849;48.482;2.332;2022-11-20T06:35:51;6.00;4.00;1.00
68841;PMS5003;55849;48.482;2.332;2022-11-20T06:38:52;6.00;4.00;2.00
68841;PMS5003;55849;48.482;2.332;2022-11-20T06:41:54;6.75;5.00;3.00
68841;PMS5003;55849;48.482;2.332;2022-11-20T06:44:57;6.75;6.00;3.00
68841;PMS5003;55849;48.482;2.332;2022-11-20T06:47:59;6.50;4.50;3.00
68841;PMS5003;55849;48.482;2.332;2022-11-20T06:51:02;6.00;3.00;3.00
68841;PMS5003;55849;48.482;2.332;2022-11-20T06:54:04;3.00;3.00;3.00
68841;PMS5003;55849;48.482;2.332;2022-11-20T06:57:06;6.00;3.50;2.50
68841;PMS5003;55849;48.482;2.332;2022-11-20T07:00:10;3.25;3.25;1.50
68841;PMS5003;55849;48.482;2.332;2022-11-20T07:03:12;6.50;4.00;3.50
68841;PMS5003;55849;48.482;2.332;2022-11-20T07:06:14;4.00;4.00;3.00
68841;PMS5003;55849;48.482;2.332;2022-11-20T07:09:16;8.50;4.00;4.00
68841;PMS5003;55849;48.482;2.332;2022-11-20T07:12:18;10.50;9.50;5.00
68841;PMS5003;55849;48.482;2.332;2022-11-20T07:15:22;9.00;9.00;6.00
68841;PMS5003;55849;48.482;2.332;2022-11-20T07:18:24;12.25;9.75;7.00
68841;PMS5003;55849;48.482;2.332;2022-11-20T07:21:26;11.50;8.00;6.75
68841;PMS5003;55849;48.482;2.332;2022-11-20T07:24:28;10.50;9.25;6.75
68841;PMS5003;55849;48.482;2.332;2022-11-20T07:27:29;8.50;7.00;6.50
68841;PMS5003;55849;48.482;2.332;2022-11-20T07:30:33;9.25;7.00;5.00
68841;PMS5003;55849;48.482;2.332;2022-11-20T07:33:34;9.50;7.50;6.00
68841;PMS5003;55849;48.482;2.332;2022-11-20T07:36:36;6.50;6.50;5.50
68841;PMS5003;55849;48.482;2.332;2022-11-20T07:39:37;3.75;3.75;0.00
68841;PMS5003;55849;48.482;2.332;2022-11-20T07:42:41;12.75;9.25;6.25
68841;PMS5003;55849;48.482;2.332;2022-11-20T07:45:50;8.00;7.00;4.50
68841;PMS5003;55849;48.482;2.332;2022-11-20T07:48:51;9.50;9.50;7.00
68841;PMS5003;55849;48.482;2.332;2022-11-20T07:51:53;6.50;6.00;5.50
68841;PMS5003;55849;48.482;2.332;2022-11-20T07:54:56;18.25;13.00;7.00
68841;PMS5003;55849;48.482;2.332;2022-11-20T07:57:57;23.50;20.50;13.50
68841;PMS5003;55849;48.482;2.332;2022-11-20T08:01:03;21.50;17.00;13.00
68841;PMS5003;55849;48.482;2.332;2022-11-20T08:04:06;29.75;25.00;18.00
68841;PMS5003;55849;48.482;2.332;2022-11-20T08:07:08;27.75;20.50;14.50
68841;PMS5003;55849;48.482;2.332;2022-11-20T08:10:10;14.00;9.75;7.00
68841;PMS5003;55849;48.482;2.332;2022-11-20T08:13:13;14.50;14.50;11.00
68841;PMS5003;55849;48.482;2.332;2022-11-20T08:16:33;20.00;18.75;13.00
68841;PMS5003;55849;48.482;2.332;2022-11-20T08:19:35;10.00;10.00;8.00
68841;PMS5003;55849;48.482;2.332;2022-11-20T08:22:37;21.00;14.50;9.75
68841;PMS5003;55849;48.482;2.332;2022-11-20T08:25:38;12.75;12.25;6.50
68841;PMS5003;55849;48.482;2.332;2022-11-20T08:28:40;10.25;10.00;8.00
68841;PMS5003;55849;48.482;2.332;2022-11-20T08:31:43;15.75;12.00;7.00
68841;PMS5003;55849;48.482;2.332;2022-11-20T08:34:45;15.25;8.50;5.50
68841;PMS5003;55849;48.482;2.332;2022-11-20T08:37:46;6.50;6.00;4.00
68841;PMS5003;55849;48.482;2.332;2022-11-20T08:40:48;5.50;5.50;3.00
68841;PMS5003;55849;48.482;2.332;2022-11-20T08:44:04;14.00;9.00;3.75
68841;PMS5003;55849;48.482;2.332;2022-11-20T08:47:09;9.75;9.00;6.00
68841;PMS5003;55849;48.482;2.332;2022-11-20T08:50:11;6.25;3.75;3.00
68841;PMS5003;55849;48.482;2.332;2022-11-20T08:53:14;6.50;6.00;3.50
68841;PMS5003;55849;48.482;2.332;2022-11-20T08:56:15;9.75;6.25;4.00
68841;PMS5003;55849;48.482;2.332;2022-11-20T08:59:17;7.00;7.00;4.00
68841;PMS5003;55849;48.482;2.332;2022-11-20T09:02:20;17.75;15.25;11.50
68841;PMS5003;55849;48.482;2.332;2022-11-20T09:05:22;53.50;38.75;25.25
68841;PMS5003;55849;48.482;2.332;2022-11-20T09:08:23;32.00;22.75;12.25
68841;PMS5003;55849;48.482;2.332;2022-11-20T09:11:25;31.00;24.25;14.00
68841;PMS5003;55849;48.482;2.332;2022-11-20T09:14:27;59.75;48.25;27.50
68841;PMS5003;55849;48.482;2.332;2022-11-20T09:17:31;40.00;35.50;22.75
68841;PMS5003;55849;48.482;2.332;2022-11-20T09:20:33;8.50;7.00;4.50
68841;PMS5003;55849;48.482;2.332;2022-11-20T09:23:35;6.50;4.00;4.00
68841;PMS5003;55849;48.482;2.332;2022-11-20T09:26:38;10.50;5.50;4.00
68841;PMS5003;55849;48.482;2.332;2022-11-20T09:29:39;8.00;8.00;6.00
68841;PMS5003;55849;48.482;2.332;2022-11-20T09:32:42;4.00;4.00;3.25
68841;PMS5003;55849;48.482;2.332;2022-11-20T09:35:44;9.50;5.00;4.00
68841;PMS5003;55849;48.482;2.332;2022-11-20T09:38:46;6.00;6.00;4.00
68841;PMS5003;55849;48.482;2.332;2022-11-20T09:41:53;6.00;5.50;3.00
68841;PMS5003;55849;48.482;2.332;2022-11-20T09:45:14;3.75;3.75;3.00
68841;PMS5003;55849;48.482;2.332;2022-11-20T09:48:45;15.50;12.75;9.25
68841;PMS5003;55849;48.482;2.332;2022-11-20T09:52:07;6.25;6.25;4.00
68841;PMS5003;55849;48.482;2.332;2022-11-20T09:55:18;11.00;8.50;6.00
68841;PMS5003;55849;48.482;2.332;2022-11-20T09:58:24;6.50;4.00;3.00
68841;PMS5003;55849;48.482;2.332;2022-11-20T10:01:32;4.00;4.00;2.00
68841;PMS5003;55849;48.482;2.332;2022-11-20T10:04:39;11.25;7.00;6.00
68841;PMS5003;55849;48.482;2.332;2022-11-20T10:07:48;6.00;5.00;3.25
68841;PMS5003;55849;48.482;2.332;2022-11-20T10:10:56;7.00;5.00;3.00
68841;PMS5003;55849;48.482;2.332;2022-11-20T10:14:08;9.00;5.50;3.25
68841;PMS5003;55849;48.482;2.332;2022-11-20T10:17:19;7.50;4.00;3.50
68841;PMS5003;55849;48.482;2.332;2022-11-20T10:20:39;14.25;13.25;9.25
68841;PMS5003;55849;48.482;2.332;2022-11-20T10:27:33;11.25;11.00;8.00
68841;PMS5003;55849;48.482;2.332;2022-11-20T10:30:44;20.50;17.75;13.50
68841;PMS5003;55849;48.482;2.332;2022-11-20T10:33:47;6.75;4.50;3.00
68841;PMS5003;55849;48.482;2.332;2022-11-20T10:36:55;5.50;5.50;4.00
68841;PMS5003;55849;48.482;2.332;2022-11-20T10:40:04;7.00;7.00;4.00
68841;PMS5003;55849;48.482;2.332;2022-11-20T10:43:18;10.50;10.25;7.00
68841;PMS5003;55849;48.482;2.332;2022-11-20T10:46:22;12.75;9.50;7.00
68841;PMS5003;55849;48.482;2.332;2022-11-20T10:49:25;13.25;11.25;7.50
68841;PMS5003;55849;48.482;2.332;2022-11-20T10:52:28;11.00;8.50;5.50
68841;PMS5003;55849;48.482;2.332;2022-11-20T10:55:40;12.25;6.00;4.50
68841;PMS5003;55849;48.482;2.332;2022-11-20T10:58:48;9.25;6.75;6.00
68841;PMS5003;55849;48.482;2.332;2022-11-20T11:02:17;11.00;10.00;5.50
68841;PMS5003;55849;48.482;2.332;2022-11-20T11:05:23;12.00;9.00;6.00
68841;PMS5003;55849;48.482;2.332;2022-11-20T11:08:36;21.25;14.75;9.25
68841;PMS5003;55849;48.482;2.332;2022-11-20T11:11:40;15.25;14.50;10.00
68841;PMS5003;55849;48.482;2.332;2022-11-20T11:14:42;16.50;13.75;9.00
68841;PMS5003;55849;48.482;2.332;2022-11-20T11:17:48;14.00;12.25;9.25
68841;PMS5003;55849;48.482;2.332;2022-11-20T11:20:50;8.00;7.00;6.50
68841;PMS5003;55849;48.482;2.332;2022-11-20T11:24:01;12.50;10.25;6.75
68841;PMS5003;55849;48.482;2.332;2022-11-20T11:27:09;6.25;6.25;4.00
68841;PMS5003;55849;48.482;2.332;2022-11-20T11:30:13;11.00;7.50;4.00
68841;PMS5003;55849;48.482;2.332;2022-11-20T11:33:18;12.25;9.00;6.00
68841;PMS5003;55849;48.482;2.332;2022-11-20T11:36:21;10.50;9.00;5.50
68841;PMS5003;55849;48.482;2.332;2022-11-20T11:39:26;6.75;6.75;6.00
68841;PMS5003;55849;48.482;2.332;2022-11-20T11:42:29;6.25;6.25;5.00
68841;PMS5003;55849;48.482;2.332;2022-11-20T11:45:31;14.00;10.00;6.50
68841;PMS5003;55849;48.482;2.332;2022-11-20T11:48:32;9.75;7.50;6.00
68841;PMS5003;55849;48.482;2.332;2022-11-20T11:51:34;16.75;8.00;6.00
68841;PMS5003;55849;48.482;2.332;2022-11-20T11:54:43;13.50;10.00;7.00
68841;PMS5003;55849;48.482;2.332;2022-11-20T11:57:51;10.00;9.75;7.00
68841;PMS5003;55849;48.482;2.332;2022-11-20T12:00:58;10.50;9.25;6.25
68841;PMS5003;55849;48.482;2.332;2022-11-20T12:04:15;10.50;10.50;7.50
68841;PMS5003;55849;48.482;2.332;2022-11-20T12:07:25;10.75;7.25;6.25
68841;PMS5003;55849;48.482;2.332;2022-11-20T12:10:40;20.50;14.75;8.75
68841;PMS5003;55849;48.482;2.332;2022-11-20T12:13:48;19.00;17.25;12.50
68841;PMS5003;55849;48.482;2.332;2022-11-20T12:16:55;20.00;17.50;9.75
68841;PMS5003;55849;48.482;2.332;2022-11-20T12:19:57;17.00;14.00;9.00
68841;PMS5003;55849;48.482;2.332;2022-11-20T12:23:00;8.00;5.50;5.00
68841;PMS5003;55849;48.482;2.332;2022-11-20T12:26:12;8.25;6.75;4.50
68841;PMS5003;55849;48.482;2.332;2022-11-20T12:29:37;6.00;4.75;3.75
68841;PMS5003;55849;48.482;2.332;2022-11-20T12:32:54;3.00;3.00;1.00
68841;PMS5003;55849;48.482;2.332;2022-11-20T12:36:13;11.50;9.00;6.00
68841;PMS5003;55849;48.482;2.332;2022-11-20T12:39:33;12.00;10.00;6.25
68841;PMS5003;55849;48.482;2.332;2022-11-20T12:42:45;10.00;9.00;6.00
68841;PMS5003;55849;48.482;2.332;2022-11-20T12:46:22;12.25;12.25;9.00
68841;PMS5003;55849;48.482;2.332;2022-11-20T12:49:33;6.00;4.50;3.25
68841;PMS5003;55849;48.482;2.332;2022-11-20T12:52:41;11.50;11.50;8.50
68841;PMS5003;55849;48.482;2.332;2022-11-20T12:55:49;9.00;7.00;5.00
68841;PMS5003;55849;48.482;2.332;2022-11-20T12:59:06;9.00;7.50;5.75
68841;PMS5003;55849;48.482;2.332;2022-11-20T13:02:23;6.00;5.00;4.00
68841;PMS5003;55849;48.482;2.332;2022-11-20T13:05:31;6.25;4.00;3.25
68841;PMS5003;55849;48.482;2.332;2022-11-20T13:08:45;16.75;14.00;10.00
68841;PMS5003;55849;48.482;2.332;2022-11-20T13:11:56;12.25;8.50;7.75
68841;PMS5003;55849;48.482;2.332;2022-11-20T13:15:07;11.25;10.50;9.00
68841;PMS5003;55849;48.482;2.332;2022-11-20T13:18:19;33.75;23.25;16.50
68841;PMS5003;55849;48.482;2.332;2022-11-20T13:21:22;7.00;7.00;6.00
68841;PMS5003;55849;48.482;2.332;2022-11-20T13:24:37;11.75;11.25;8.75
68841;PMS5003;55849;48.482;2.332;2022-11-20T13:27:46;6.50;6.00;4.00
68841;PMS5003;55849;48.482;2.332;2022-11-20T13:30:50;8.00;8.00;6.25
68841;PMS5003;55849;48.482;2.332;2022-11-20T13:33:53;18.25;16.25;10.00
68841;PMS5003;55849;48.482;2.332;2022-11-20T13:36:57;9.00;9.00;7.00
68841;PMS5003;55849;48.482;2.332;2022-11-20T13:40:13;7.50;7.50;6.00
68841;PMS5003;55849;48.482;2.332;2022-11-20T13:43:26;13.50;7.50;6.00
68841;PMS5003;55849;48.482;2.332;2022-11-20T13:46:38;18.50;17.00;10.00
68841;PMS5003;55849;48.482;2.332;2022-11-20T13:49:43;7.25;7.00;5.50
68841;PMS5003;55849;48.482;2.332;2022-11-20T13:52:47;18.50;15.50;12.25
68841;PMS5003;55849;48.482;2.332;2022-11-20T13:55:59;9.00;5.00;4.00
68841;PMS5003;55849;48.482;2.332;2022-11-20T13:59:07;15.00;12.50;9.00
68841;PMS5003;55849;48.482;2.332;2022-11-20T14:02:16;9.00;7.50;5.75
68841;PMS5003;55849;48.482;2.332;2022-11-20T14:05:20;21.00;17.00;12.75
68841;PMS5003;55849;48.482;2.332;2022-11-20T14:08:25;14.00;13.00;8.00
68841;PMS5003;55849;48.482;2.332;2022-11-20T14:11:32;8.00;7.50;6.50
68841;PMS5003;55849;48.482;2.332;2022-11-20T14:14:33;10.25;8.00;5.25
68841;PMS5003;55849;48.482;2.332;2022-11-20T14:17:37;9.00;9.00;5.00
68841;PMS5003;55849;48.482;2.332;2022-11-20T14:20:39;11.75;10.25;7.00
68841;PMS5003;55849;48.482;2.332;2022-11-20T14:23:42;8.00;8.00;5.00
68841;PMS5003;55849;48.482;2.332;2022-11-20T14:26:44;17.25;13.50;10.00
68841;PMS5003;55849;48.482;2.332;2022-11-20T14:29:47;22.00;18.75;13.00
68841;PMS5003;55849;48.482;2.332;2022-11-20T14:32:53;13.25;12.00;7.75
68841;PMS5003;55849;48.482;2.332;2022-11-20T14:35:57;14.00;11.50;8.25
68841;PMS5003;55849;48.482;2.332;2022-11-20T14:38:59;13.25;12.75;8.25
68841;PMS5003;55849;48.482;2.332;2022-11-20T14:42:01;13.00;11.25;7.25
68841;PMS5003;55849;48.482;2.332;2022-11-20T14:45:03;24.50;20.00;15.25
68841;PMS5003;55849;48.482;2.332;2022-11-20T14:48:08;16.75;14.00;9.50
68841;PMS5003;55849;48.482;2.332;2022-11-20T14:51:12;42.75;33.00;22.50
68841;PMS5003;55849;48.482;2.332;2022-11-20T14:54:31;23.50;19.75;14.75
68841;PMS5003;55849;48.482;2.332;2022-11-20T14:57:34;28.75;25.00;17.25
68841;PMS5003;55849;48.482;2.332;2022-11-20T15:00:37;47.00;38.25;26.50
68841;PMS5003;55849;48.482;2.332;2022-11-20T15:03:40;26.00;23.50;19.25
68841;PMS5003;55849;48.482;2.332;2022-11-20T15:06:48;24.25;20.50;14.25
68841;PMS5003;55849;48.482;2.332;2022-11-20T15:10:01;22.00;22.00;17.25
68841;PMS5003;55849;48.482;2.332;2022-11-20T15:13:05;48.00;38.75;25.25
68841;PMS5003;55849;48.482;2.332;2022-11-20T15:16:13;49.00;40.50;27.00
68841;PMS5003;55849;48.482;2.332;2022-11-20T15:19:21;31.25;27.50;20.75
68841;PMS5003;55849;48.482;2.332;2022-11-20T15:22:25;20.00;19.00;14.00
68841;PMS5003;55849;48.482;2.332;2022-11-20T15:25:26;23.25;21.25;15.00
68841;PMS5003;55849;48.482;2.332;2022-11-20T15:28:29;28.00;22.25;16.75
68841;PMS5003;55849;48.482;2.332;2022-11-20T15:31:33;19.50;16.00;13.00
68841;PMS5003;55849;48.482;2.332;2022-11-20T15:34:36;25.75;23.50;15.00
68841;PMS5003;55849;48.482;2.332;2022-11-20T15:37:38;19.25;18.50;13.75
68841;PMS5003;55849;48.482;2.332;2022-11-20T15:40:40;22.50;21.50;15.50
68841;PMS5003;55849;48.482;2.332;2022-11-20T15:43:42;22.25;22.00;15.00
68841;PMS5003;55849;48.482;2.332;2022-11-20T15:46:43;26.00;23.00;15.75
68841;PMS5003;55849;48.482;2.332;2022-11-20T15:49:47;24.00;22.00;14.50
68841;PMS5003;55849;48.482;2.332;2022-11-20T15:52:49;24.75;23.00;16.25
68841;PMS5003;55849;48.482;2.332;2022-11-20T15:55:51;17.75;11.75;7.00
68841;PMS5003;55849;48.482;2.332;2022-11-20T15:58:53;11.75;11.75;8.00
68841;PMS5003;55849;48.482;2.332;2022-11-20T16:01:54;27.50;21.50;14.25
68841;PMS5003;55849;48.482;2.332;2022-11-20T16:04:57;21.50;20.50;13.00
68841;PMS5003;55849;48.482;2.332;2022-11-20T16:07:59;21.50;21.50;13.50
68841;PMS5003;55849;48.482;2.332;2022-11-20T16:11:01;29.75;24.75;17.75
68841;PMS5003;55849;48.482;2.332;2022-11-20T16:14:03;19.50;17.25;10.75
68841;PMS5003;55849;48.482;2.332;2022-11-20T16:17:23;14.00;12.25;11.00
68841;PMS5003;55849;48.482;2.332;2022-11-20T16:20:44;35.75;32.75;23.25
68841;PMS5003;55849;48.482;2.332;2022-11-20T16:23:46;21.00;18.50;14.25
68841;PMS5003;55849;48.482;2.332;2022-11-20T16:26:48;29.75;29.00;21.00
68841;PMS5003;55849;48.482;2.332;2022-11-20T16:29:50;45.75;37.25;24.25
68841;PMS5003;55849;48.482;2.332;2022-11-20T16:32:51;37.75;34.00;23.00
68841;PMS5003;55849;48.482;2.332;2022-11-20T16:35:54;38.25;33.00;23.00
68841;PMS5003;55849;48.482;2.332;2022-11-20T16:38:57;41.00;33.00;22.50
68841;PMS5003;55849;48.482;2.332;2022-11-20T16:42:01;39.25;33.75;24.50
68841;PMS5003;55849;48.482;2.332;2022-11-20T16:45:05;31.75;29.75;19.75
68841;PMS5003;55849;48.482;2.332;2022-11-20T16:48:10;33.75;28.25;21.00
68841;PMS5003;55849;48.482;2.332;2022-11-20T16:51:15;22.00;20.50;15.00
68841;PMS5003;55849;48.482;2.332;2022-11-20T16:54:16;28.50;24.50;18.00
68841;PMS5003;55849;48.482;2.332;2022-11-20T16:57:20;15.50;15.50;13.00
68841;PMS5003;55849;48.482;2.332;2022-11-20T17:00:22;32.00;29.75;20.50
68841;PMS5003;55849;48.482;2.332;2022-11-20T17:03:24;27.75;24.25;18.50
68841;PMS5003;55849;48.482;2.332;2022-11-20T17:06:27;40.00;32.50;21.75
68841;PMS5003;55849;48.482;2.332;2022-11-20T17:09:30;30.00;27.75;20.00
68841;PMS5003;55849;48.482;2.332;2022-11-20T17:12:32;27.50;23.50;18.50
68841;PMS5003;55849;48.482;2.332;2022-11-20T17:15:33;25.00;20.50;12.50
68841;PMS5003;55849;48.482;2.332;2022-11-20T17:18:35;24.00;19.00;12.25
68841;PMS5003;55849;48.482;2.332;2022-11-20T17:21:39;29.00;25.00;17.00
68841;PMS5003;55849;48.482;2.332;2022-11-20T17:24:41;28.25;21.75;14.75
68841;PMS5003;55849;48.482;2.332;2022-11-20T17:27:42;11.00;11.00;8.00
68841;PMS5003;55849;48.482;2.332;2022-11-20T17:30:44;15.75;12.75;9.25
68841;PMS5003;55849;48.482;2.332;2022-11-20T17:33:46;11.75;11.00;9.00
68841;PMS5003;55849;48.482;2.332;2022-11-20T17:36:49;9.00;9.00;6.00
68841;PMS5003;55849;48.482;2.332;2022-11-20T17:39:51;20.50;17.75;14.25
68841;PMS5003;55849;48.482;2.332;2022-11-20T17:42:53;23.75;19.50;14.25
68841;PMS5003;55849;48.482;2.332;2022-11-20T17:45:55;27.50;24.75;18.25
68841;PMS5003;55849;48.482;2.332;2022-11-20T17:48:56;20.00;16.25;11.75
68841;PMS5003;55849;48.482;2.332;2022-11-20T17:52:00;14.50;11.00;7.00